Terminal Aerodrome Forecast
Issued by NWS

Home | Current Version | Previous Version | Text Only | Print | Product List | Glossary On
Versions: 1 2 3 4 5 6 7 8 9 10 11 12 13
000
FTUS46 KPDT 240118 AAA
TAFALW
TAF AMD
KALW 240118Z 2401/2424 19008KT 5SM FU BKN150
      TEMPO 2402/2406 -SHRA OVC050
     FM240600 20012KT P6SM OVC100
     FM241300 18008KT P6SM SKC
     FM241800 22012G18KT P6SM SKC=

USA.gov is the U.S. government's official web portal to all federal, state and local government web resources and services.